sensor_id;sensor_type;location;lat;lon;timestamp;pressure;altitude;pressure_sealevel;temperature;humidity
63321;BME280;49449;48.800;9.534;2023-04-25T00:00:58;97953.72;;;9.78;39.29
63321;BME280;49449;48.800;9.534;2023-04-25T00:03:26;97959.28;;;9.94;38.86
63321;BME280;49449;48.800;9.534;2023-04-25T00:05:55;97956.50;;;10.00;38.72
63321;BME280;49449;48.800;9.534;2023-04-25T00:08:26;97961.31;;;10.03;38.58
63321;BME280;49449;48.800;9.534;2023-04-25T00:10:53;97954.53;;;10.08;38.65
63321;BME280;49449;48.800;9.534;2023-04-25T00:13:21;97956.47;;;10.12;38.20
63321;BME280;49449;48.800;9.534;2023-04-25T00:15:49;97958.84;;;10.14;38.22
63321;BME280;49449;48.800;9.534;2023-04-25T00:18:18;97959.41;;;10.16;38.24
63321;BME280;49449;48.800;9.534;2023-04-25T00:20:45;97949.97;;;10.20;38.33
63321;BME280;49449;48.800;9.534;2023-04-25T00:23:14;97956.63;;;10.22;38.25
63321;BME280;49449;48.800;9.534;2023-04-25T00:25:45;97957.19;;;10.24;38.00
63321;BME280;49449;48.800;9.534;2023-04-25T00:28:13;97956.13;;;10.25;38.15
63321;BME280;49449;48.800;9.534;2023-04-25T00:30:42;97956.13;;;10.25;38.26
63321;BME280;49449;48.800;9.534;2023-04-25T00:33:10;97949.81;;;10.27;38.11
63321;BME280;49449;48.800;9.534;2023-04-25T00:35:38;97952.47;;;10.27;37.95
63321;BME280;49449;48.800;9.534;2023-04-25T00:38:05;97939.50;;;10.25;38.08
63321;BME280;49449;48.800;9.534;2023-04-25T00:40:33;97939.50;;;10.25;37.99
63321;BME280;49449;48.800;9.534;2023-04-25T00:43:02;97932.78;;;10.17;37.96
63321;BME280;49449;48.800;9.534;2023-04-25T00:45:30;97931.72;;;10.18;38.11
63321;BME280;49449;48.800;9.534;2023-04-25T00:47:59;97930.16;;;10.17;38.12
63321;BME280;49449;48.800;9.534;2023-04-25T00:50:27;97929.50;;;10.10;37.89
63321;BME280;49449;48.800;9.534;2023-04-25T00:52:55;97929.81;;;10.14;37.93
63321;BME280;49449;48.800;9.534;2023-04-25T00:55:23;97933.25;;;10.14;37.68
63321;BME280;49449;48.800;9.534;2023-04-25T00:57:51;97933.00;;;9.99;37.63
63321;BME280;49449;48.800;9.534;2023-04-25T01:00:20;97925.63;;;9.84;37.44
63321;BME280;49449;48.800;9.534;2023-04-25T01:02:48;97928.38;;;9.77;37.58
63321;BME280;49449;48.800;9.534;2023-04-25T01:05:16;97927.50;;;9.72;37.66
63321;BME280;49449;48.800;9.534;2023-04-25T01:07:45;97926.53;;;9.78;37.58
63321;BME280;49449;48.800;9.534;2023-04-25T01:10:13;97916.06;;;9.83;37.55
63321;BME280;49449;48.800;9.534;2023-04-25T01:12:41;97912.88;;;9.81;37.60
63321;BME280;49449;48.800;9.534;2023-04-25T01:15:09;97907.03;;;9.79;37.57
63321;BME280;49449;48.800;9.534;2023-04-25T01:17:40;97905.97;;;9.80;37.72
63321;BME280;49449;48.800;9.534;2023-04-25T01:20:11;97905.34;;;9.73;37.73
63321;BME280;49449;48.800;9.534;2023-04-25T01:22:40;97900.59;;;9.58;38.01
63321;BME280;49449;48.800;9.534;2023-04-25T01:25:08;97908.16;;;9.66;38.33
63321;BME280;49449;48.800;9.534;2023-04-25T01:27:37;97904.91;;;9.64;38.50
63321;BME280;49449;48.800;9.534;2023-04-25T01:30:06;97906.44;;;9.60;38.64
63321;BME280;49449;48.800;9.534;2023-04-25T01:32:34;97898.84;;;9.63;38.74
63321;BME280;49449;48.800;9.534;2023-04-25T01:35:05;97901.34;;;9.70;38.74
63321;BME280;49449;48.800;9.534;2023-04-25T01:37:35;97896.41;;;9.74;38.75
63321;BME280;49449;48.800;9.534;2023-04-25T01:40:06;97894.97;;;9.66;38.88
63321;BME280;49449;48.800;9.534;2023-04-25T01:42:36;97890.78;;;9.70;38.88
63321;BME280;49449;48.800;9.534;2023-04-25T01:45:05;97892.97;;;9.73;38.90
63321;BME280;49449;48.800;9.534;2023-04-25T01:47:33;97894.88;;;9.78;38.94
63321;BME280;49449;48.800;9.534;2023-04-25T01:50:02;97898.06;;;9.80;38.71
63321;BME280;49449;48.800;9.534;2023-04-25T01:52:30;97893.84;;;9.79;38.90
63321;BME280;49449;48.800;9.534;2023-04-25T01:54:59;97889.47;;;9.84;38.63
63321;BME280;49449;48.800;9.534;2023-04-25T01:57:29;97897.50;;;9.90;38.61
63321;BME280;49449;48.800;9.534;2023-04-25T02:00:00;97897.75;;;9.76;38.68
63321;BME280;49449;48.800;9.534;2023-04-25T02:02:29;97897.41;;;9.73;38.91
63321;BME280;49449;48.800;9.534;2023-04-25T02:04:56;97895.09;;;9.76;39.08
63321;BME280;49449;48.800;9.534;2023-04-25T02:07:26;97893.19;;;9.72;38.91
63321;BME280;49449;48.800;9.534;2023-04-25T02:09:53;97896.50;;;9.79;39.00
63321;BME280;49449;48.800;9.534;2023-04-25T02:12:21;97890.75;;;9.82;38.83
63321;BME280;49449;48.800;9.534;2023-04-25T02:14:50;97890.16;;;9.80;38.82
63321;BME280;49449;48.800;9.534;2023-04-25T02:17:18;97889.13;;;9.81;38.81
63321;BME280;49449;48.800;9.534;2023-04-25T02:19:47;97894.75;;;9.84;38.79
63321;BME280;49449;48.800;9.534;2023-04-25T02:22:15;97892.69;;;9.86;38.18
63321;BME280;49449;48.800;9.534;2023-04-25T02:24:43;97885.56;;;9.87;38.39
63321;BME280;49449;48.800;9.534;2023-04-25T02:27:11;97885.91;;;9.91;38.45
63321;BME280;49449;48.800;9.534;2023-04-25T02:29:38;97886.47;;;9.93;38.64
63321;BME280;49449;48.800;9.534;2023-04-25T02:32:07;97888.78;;;9.89;38.98
63321;BME280;49449;48.800;9.534;2023-04-25T02:34:35;97885.31;;;9.89;38.94
63321;BME280;49449;48.800;9.534;2023-04-25T02:37:03;97891.19;;;9.91;39.15
63321;BME280;49449;48.800;9.534;2023-04-25T02:39:31;97884.06;;;9.91;39.09
63321;BME280;49449;48.800;9.534;2023-04-25T02:41:59;97887.25;;;9.93;38.93
63321;BME280;49449;48.800;9.534;2023-04-25T02:44:27;97881.19;;;9.93;39.00
63321;BME280;49449;48.800;9.534;2023-04-25T02:46:55;97884.06;;;9.91;39.12
63321;BME280;49449;48.800;9.534;2023-04-25T02:49:24;97878.47;;;9.88;38.93
63321;BME280;49449;48.800;9.534;2023-04-25T02:51:52;97876.84;;;9.86;39.09
63321;BME280;49449;48.800;9.534;2023-04-25T02:54:19;97869.16;;;9.85;39.33
63321;BME280;49449;48.800;9.534;2023-04-25T02:56:47;97869.41;;;9.83;39.18
63321;BME280;49449;48.800;9.534;2023-04-25T02:59:15;97870.91;;;9.79;39.04
63321;BME280;49449;48.800;9.534;2023-04-25T03:01:43;97865.31;;;9.76;39.18
63321;BME280;49449;48.800;9.534;2023-04-25T03:04:11;97871.63;;;9.75;39.35
63321;BME280;49449;48.800;9.534;2023-04-25T03:06:40;97871.88;;;9.73;39.08
63321;BME280;49449;48.800;9.534;2023-04-25T03:09:08;97862.97;;;9.62;39.51
63321;BME280;49449;48.800;9.534;2023-04-25T03:11:38;97876.72;;;9.64;39.47
63321;BME280;49449;48.800;9.534;2023-04-25T03:14:06;97864.34;;;9.65;39.35
63321;BME280;49449;48.800;9.534;2023-04-25T03:16:33;97876.88;;;9.58;39.39
63321;BME280;49449;48.800;9.534;2023-04-25T03:19:02;97875.66;;;9.48;39.53
63321;BME280;49449;48.800;9.534;2023-04-25T03:21:30;97868.44;;;9.44;39.78
63321;BME280;49449;48.800;9.534;2023-04-25T03:24:00;97862.16;;;9.45;39.63
63321;BME280;49449;48.800;9.534;2023-04-25T03:26:28;97858.47;;;9.46;39.65
63321;BME280;49449;48.800;9.534;2023-04-25T03:28:56;97866.22;;;9.53;39.79
63321;BME280;49449;48.800;9.534;2023-04-25T03:31:24;97867.34;;;9.57;39.56
63321;BME280;49449;48.800;9.534;2023-04-25T03:33:52;97865.53;;;9.57;39.45
63321;BME280;49449;48.800;9.534;2023-04-25T03:36:20;97867.44;;;9.62;39.38
63321;BME280;49449;48.800;9.534;2023-04-25T03:38:47;97871.44;;;9.64;39.41
63321;BME280;49449;48.800;9.534;2023-04-25T03:41:17;97866.41;;;9.63;39.21
63321;BME280;49449;48.800;9.534;2023-04-25T03:43:45;97856.41;;;9.65;38.85
63321;BME280;49449;48.800;9.534;2023-04-25T03:46:13;97864.66;;;9.68;39.09
63321;BME280;49449;48.800;9.534;2023-04-25T03:48:41;97859.94;;;9.71;39.02
63321;BME280;49449;48.800;9.534;2023-04-25T03:51:09;97851.22;;;9.70;38.94
63321;BME280;49449;48.800;9.534;2023-04-25T03:53:37;97850.44;;;9.70;39.10
63321;BME280;49449;48.800;9.534;2023-04-25T03:56:05;97855.72;;;9.70;39.02
63321;BME280;49449;48.800;9.534;2023-04-25T03:58:34;97856.50;;;9.70;38.91
63321;BME280;49449;48.800;9.534;2023-04-25T04:01:02;97859.63;;;9.67;39.01
63321;BME280;49449;48.800;9.534;2023-04-25T04:03:33;97865.94;;;9.66;39.44
63321;BME280;49449;48.800;9.534;2023-04-25T04:06:02;97874.66;;;9.66;39.15
63321;BME280;49449;48.800;9.534;2023-04-25T04:08:30;97871.78;;;9.68;39.14
63321;BME280;49449;48.800;9.534;2023-04-25T04:10:58;97876.00;;;9.69;39.16
63321;BME280;49449;48.800;9.534;2023-04-25T04:13:26;97872.56;;;9.68;39.12
63321;BME280;49449;48.800;9.534;2023-04-25T04:15:55;97867.28;;;9.68;39.17
63321;BME280;49449;48.800;9.534;2023-04-25T04:18:23;97874.41;;;9.68;39.31
63321;BME280;49449;48.800;9.534;2023-04-25T04:20:51;97868.09;;;9.69;39.33
63321;BME280;49449;48.800;9.534;2023-04-25T04:23:19;97867.84;;;9.71;39.20
63321;BME280;49449;48.800;9.534;2023-04-25T04:25:47;97872.41;;;9.75;39.14
63321;BME280;49449;48.800;9.534;2023-04-25T04:28:15;97882.41;;;9.73;38.97
63321;BME280;49449;48.800;9.534;2023-04-25T04:30:44;97875.84;;;9.76;38.88
63321;BME280;49449;48.800;9.534;2023-04-25T04:33:14;97868.16;;;9.74;38.71
63321;BME280;49449;48.800;9.534;2023-04-25T04:35:42;97870.72;;;9.52;39.23
63321;BME280;49449;48.800;9.534;2023-04-25T04:38:10;97872.72;;;9.62;39.23
63321;BME280;49449;48.800;9.534;2023-04-25T04:40:38;97878.06;;;9.67;39.21
63321;BME280;49449;48.800;9.534;2023-04-25T04:43:07;97876.50;;;9.66;39.15
63321;BME280;49449;48.800;9.534;2023-04-25T04:45:35;97882.47;;;9.61;39.08
63321;BME280;49449;48.800;9.534;2023-04-25T04:48:05;97879.38;;;9.64;39.11
63321;BME280;49449;48.800;9.534;2023-04-25T04:50:34;97884.41;;;9.66;39.09
63321;BME280;49449;48.800;9.534;2023-04-25T04:53:02;97882.00;;;9.64;39.19
63321;BME280;49449;48.800;9.534;2023-04-25T04:55:30;97887.38;;;9.70;39.17
63321;BME280;49449;48.800;9.534;2023-04-25T04:57:57;97886.09;;;9.72;38.99
63321;BME280;49449;48.800;9.534;2023-04-25T05:00:25;97893.44;;;9.70;39.25
63321;BME280;49449;48.800;9.534;2023-04-25T05:02:55;97893.66;;;9.68;38.95
63321;BME280;49449;48.800;9.534;2023-04-25T05:05:22;97897.00;;;9.64;38.98
63321;BME280;49449;48.800;9.534;2023-04-25T05:07:52;97892.31;;;9.66;39.09
63321;BME280;49449;48.800;9.534;2023-04-25T05:10:19;97895.59;;;9.73;39.20
63321;BME280;49449;48.800;9.534;2023-04-25T05:12:47;97893.38;;;9.82;39.11
63321;BME280;49449;48.800;9.534;2023-04-25T05:15:15;97896.59;;;9.84;39.25
63321;BME280;49449;48.800;9.534;2023-04-25T05:17:43;97901.75;;;9.79;39.36
63321;BME280;49449;48.800;9.534;2023-04-25T05:20:11;97898.44;;;9.83;39.36
63321;BME280;49449;48.800;9.534;2023-04-25T05:22:40;97895.31;;;9.86;39.42
63321;BME280;49449;48.800;9.534;2023-04-25T05:25:10;97893.00;;;9.90;39.38
63321;BME280;49449;48.800;9.534;2023-04-25T05:27:38;97900.44;;;9.93;39.35
63321;BME280;49449;48.800;9.534;2023-04-25T05:30:07;97892.06;;;9.96;39.43
63321;BME280;49449;48.800;9.534;2023-04-25T05:32:35;97894.19;;;9.99;39.41
63321;BME280;49449;48.800;9.534;2023-04-25T05:35:03;97897.97;;;10.03;39.43
63321;BME280;49449;48.800;9.534;2023-04-25T05:37:33;97896.94;;;10.04;39.34
63321;BME280;49449;48.800;9.534;2023-04-25T05:40:01;97899.19;;;10.13;39.19
63321;BME280;49449;48.800;9.534;2023-04-25T05:42:34;97902.38;;;10.15;39.21
63321;BME280;49449;48.800;9.534;2023-04-25T05:45:02;97904.31;;;10.19;39.20
63321;BME280;49449;48.800;9.534;2023-04-25T05:47:30;97902.22;;;10.21;38.64
63321;BME280;49449;48.800;9.534;2023-04-25T05:49:58;97899.91;;;10.25;38.68
63321;BME280;49449;48.800;9.534;2023-04-25T05:52:26;97900.44;;;10.27;38.80
63321;BME280;49449;48.800;9.534;2023-04-25T05:54:53;97907.66;;;10.32;38.76
63321;BME280;49449;48.800;9.534;2023-04-25T05:57:24;97898.53;;;10.39;38.21
63321;BME280;49449;48.800;9.534;2023-04-25T05:59:54;97902.53;;;10.42;38.43
63321;BME280;49449;48.800;9.534;2023-04-25T06:02:22;97911.56;;;10.46;38.53
63321;BME280;49449;48.800;9.534;2023-04-25T06:04:50;97909.25;;;10.50;38.16
63321;BME280;49449;48.800;9.534;2023-04-25T06:07:18;97914.59;;;10.55;38.51
63321;BME280;49449;48.800;9.534;2023-04-25T06:09:46;97913.72;;;10.49;38.31
63321;BME280;49449;48.800;9.534;2023-04-25T06:12:14;97908.13;;;10.46;38.81
63321;BME280;49449;48.800;9.534;2023-04-25T06:14:42;97910.53;;;10.47;38.71
63321;BME280;49449;48.800;9.534;2023-04-25T06:17:11;97908.44;;;10.49;39.37
63321;BME280;49449;48.800;9.534;2023-04-25T06:19:39;97904.19;;;10.48;38.81
63321;BME280;49449;48.800;9.534;2023-04-25T06:22:07;97913.22;;;10.52;38.95
63321;BME280;49449;48.800;9.534;2023-04-25T06:24:35;97911.34;;;10.48;39.32
63321;BME280;49449;48.800;9.534;2023-04-25T06:27:02;97908.75;;;10.53;39.43
63321;BME280;49449;48.800;9.534;2023-04-25T06:29:30;97915.88;;;10.52;39.33
63321;BME280;49449;48.800;9.534;2023-04-25T06:31:59;97914.28;;;10.51;39.81
63321;BME280;49449;48.800;9.534;2023-04-25T06:34:28;97911.16;;;10.54;39.76
63321;BME280;49449;48.800;9.534;2023-04-25T06:36:56;97921.97;;;10.53;39.70
63321;BME280;49449;48.800;9.534;2023-04-25T06:39:24;97913.50;;;10.51;39.90
63321;BME280;49449;48.800;9.534;2023-04-25T06:41:52;97913.72;;;10.49;40.02
63321;BME280;49449;48.800;9.534;2023-04-25T06:44:19;97904.91;;;10.43;40.24
63321;BME280;49449;48.800;9.534;2023-04-25T06:46:49;97903.66;;;10.46;39.76
63321;BME280;49449;48.800;9.534;2023-04-25T06:49:17;97906.03;;;10.48;39.88
63321;BME280;49449;48.800;9.534;2023-04-25T06:51:46;97901.88;;;10.52;39.94
63321;BME280;49449;48.800;9.534;2023-04-25T06:54:14;97907.47;;;10.55;40.14
63321;BME280;49449;48.800;9.534;2023-04-25T06:56:41;97904.97;;;10.66;40.07
63321;BME280;49449;48.800;9.534;2023-04-25T06:59:09;97908.34;;;10.61;39.80
63321;BME280;49449;48.800;9.534;2023-04-25T07:01:37;97900.63;;;10.76;39.52
63321;BME280;49449;48.800;9.534;2023-04-25T07:04:05;97906.22;;;10.80;38.86
63321;BME280;49449;48.800;9.534;2023-04-25T07:06:33;97912.41;;;10.86;39.48
63321;BME280;49449;48.800;9.534;2023-04-25T07:09:02;97916.03;;;11.02;39.17
63321;BME280;49449;48.800;9.534;2023-04-25T07:11:29;97909.72;;;11.03;39.34
63321;BME280;49449;48.800;9.534;2023-04-25T07:13:57;97909.72;;;11.03;39.78
63321;BME280;49449;48.800;9.534;2023-04-25T07:16:25;97911.66;;;11.12;39.01
63321;BME280;49449;48.800;9.534;2023-04-25T07:18:53;97902.94;;;10.34;38.72
63321;BME280;49449;48.800;9.534;2023-04-25T07:21:21;97913.66;;;10.44;38.56
63321;BME280;49449;48.800;9.534;2023-04-25T07:23:49;97906.03;;;10.48;38.37
63321;BME280;49449;48.800;9.534;2023-04-25T07:26:18;97902.50;;;10.59;38.25
63321;BME280;49449;48.800;9.534;2023-04-25T07:28:46;97911.34;;;10.70;38.81
63321;BME280;49449;48.800;9.534;2023-04-25T07:31:17;97915.25;;;10.84;38.46
63321;BME280;49449;48.800;9.534;2023-04-25T07:33:45;97913.22;;;10.86;37.79
63321;BME280;49449;48.800;9.534;2023-04-25T07:36:12;97919.06;;;10.88;38.38
63321;BME280;49449;48.800;9.534;2023-04-25T07:38:41;97912.47;;;10.91;38.42
63321;BME280;49449;48.800;9.534;2023-04-25T07:41:09;97915.94;;;10.91;38.49
63321;BME280;49449;48.800;9.534;2023-04-25T07:43:38;97914.88;;;10.92;38.00
63321;BME280;49449;48.800;9.534;2023-04-25T07:46:06;97924.97;;;10.95;37.85
63321;BME280;49449;48.800;9.534;2023-04-25T07:48:34;97920.41;;;10.91;38.25
63321;BME280;49449;48.800;9.534;2023-04-25T07:51:01;97926.50;;;10.91;37.62
63321;BME280;49449;48.800;9.534;2023-04-25T07:53:31;97931.59;;;10.98;37.38
63321;BME280;49449;48.800;9.534;2023-04-25T07:55:58;97925.03;;;11.00;37.17
63321;BME280;49449;48.800;9.534;2023-04-25T07:58:26;97927.59;;;10.95;37.04
63321;BME280;49449;48.800;9.534;2023-04-25T08:00:55;97927.22;;;10.87;37.98
63321;BME280;49449;48.800;9.534;2023-04-25T08:03:23;97942.97;;;10.81;38.41
63321;BME280;49449;48.800;9.534;2023-04-25T08:05:51;97941.31;;;10.75;37.96
63321;BME280;49449;48.800;9.534;2023-04-25T08:08:19;97947.94;;;10.78;38.31
63321;BME280;49449;48.800;9.534;2023-04-25T08:10:47;97953.47;;;10.76;38.76
63321;BME280;49449;48.800;9.534;2023-04-25T08:13:14;97949.78;;;10.77;39.13
63321;BME280;49449;48.800;9.534;2023-04-25T08:15:42;97951.94;;;10.80;39.50
63321;BME280;49449;48.800;9.534;2023-04-25T08:18:11;97958.34;;;10.85;39.82
63321;BME280;49449;48.800;9.534;2023-04-25T08:20:39;97958.03;;;10.81;39.39
63321;BME280;49449;48.800;9.534;2023-04-25T08:23:08;97964.81;;;10.77;39.18
63321;BME280;49449;48.800;9.534;2023-04-25T08:25:37;97968.38;;;10.15;39.94
63321;BME280;49449;48.800;9.534;2023-04-25T08:28:05;97965.28;;;10.35;40.26
63321;BME280;49449;48.800;9.534;2023-04-25T08:30:33;97970.28;;;10.36;39.73
63321;BME280;49449;48.800;9.534;2023-04-25T08:33:01;97973.75;;;10.37;40.45
63321;BME280;49449;48.800;9.534;2023-04-25T08:35:30;97976.88;;;10.34;40.51
63321;BME280;49449;48.800;9.534;2023-04-25T08:37:59;97974.94;;;10.12;40.65
63321;BME280;49449;48.800;9.534;2023-04-25T08:40:28;97983.41;;;10.14;41.18
63321;BME280;49449;48.800;9.534;2023-04-25T08:42:57;97986.00;;;10.26;40.82
63321;BME280;49449;48.800;9.534;2023-04-25T08:45:26;97995.25;;;10.29;40.48
63321;BME280;49449;48.800;9.534;2023-04-25T08:47:56;97998.13;;;10.27;41.16
63321;BME280;49449;48.800;9.534;2023-04-25T08:50:25;97995.16;;;10.23;41.26
63321;BME280;49449;48.800;9.534;2023-04-25T08:52:55;98004.06;;;10.17;40.99
63321;BME280;49449;48.800;9.534;2023-04-25T08:55:28;98009.34;;;10.17;41.71
63321;BME280;49449;48.800;9.534;2023-04-25T08:57:57;98010.53;;;10.27;41.52
63321;BME280;49449;48.800;9.534;2023-04-25T09:00:26;98013.75;;;10.29;41.82
63321;BME280;49449;48.800;9.534;2023-04-25T09:02:55;98018.00;;;10.30;41.67
63321;BME280;49449;48.800;9.534;2023-04-25T09:05:23;98024.25;;;10.12;42.05
63321;BME280;49449;48.800;9.534;2023-04-25T09:07:51;98038.06;;;10.14;42.64
63321;BME280;49449;48.800;9.534;2023-04-25T09:10:20;98034.91;;;10.17;42.92
63321;BME280;49449;48.800;9.534;2023-04-25T09:13:02;98037.22;;;10.13;43.12
63321;BME280;49449;48.800;9.534;2023-04-25T09:15:30;98049.41;;;10.14;42.93
63321;BME280;49449;48.800;9.534;2023-04-25T09:17:58;98043.06;;;10.15;43.03
63321;BME280;49449;48.800;9.534;2023-04-25T09:20:26;98054.22;;;10.17;42.81
63321;BME280;49449;48.800;9.534;2023-04-25T09:23:02;98058.22;;;10.20;42.94
63321;BME280;49449;48.800;9.534;2023-04-25T09:25:35;98054.53;;;10.21;42.44
63321;BME280;49449;48.800;9.534;2023-04-25T09:28:06;98050.53;;;10.18;42.36
63321;BME280;49449;48.800;9.534;2023-04-25T09:30:35;98062.13;;;10.17;42.57
63321;BME280;49449;48.800;9.534;2023-04-25T09:33:05;98065.78;;;10.16;42.48
63321;BME280;49449;48.800;9.534;2023-04-25T09:35:37;98065.19;;;9.97;42.71
63321;BME280;49449;48.800;9.534;2023-04-25T09:38:13;98066.34;;;9.90;42.78
63321;BME280;49449;48.800;9.534;2023-04-25T09:40:46;98067.53;;;9.70;42.76
63321;BME280;49449;48.800;9.534;2023-04-25T09:43:19;98080.72;;;9.58;42.66
63321;BME280;49449;48.800;9.534;2023-04-25T09:45:48;98085.56;;;9.49;43.04
63321;BME280;49449;48.800;9.534;2023-04-25T09:48:18;98083.97;;;9.37;43.42
63321;BME280;49449;48.800;9.534;2023-04-25T09:51:03;98090.59;;;9.39;43.35
63321;BME280;49449;48.800;9.534;2023-04-25T09:53:32;98092.44;;;9.39;43.11
63321;BME280;49449;48.800;9.534;2023-04-25T09:56:03;98092.91;;;9.24;43.26
63321;BME280;49449;48.800;9.534;2023-04-25T09:58:32;98090.16;;;9.19;43.88
63321;BME280;49449;48.800;9.534;2023-04-25T10:01:02;98094.50;;;9.37;43.19
63321;BME280;49449;48.800;9.534;2023-04-25T10:03:31;98091.66;;;9.38;43.39
63321;BME280;49449;48.800;9.534;2023-04-25T10:05:59;98094.03;;;9.52;43.31
63321;BME280;49449;48.800;9.534;2023-04-25T10:08:31;98097.50;;;9.52;44.24
63321;BME280;49449;48.800;9.534;2023-04-25T10:11:02;98094.03;;;9.52;43.63
63321;BME280;49449;48.800;9.534;2023-04-25T10:13:31;98101.03;;;9.46;43.75
63321;BME280;49449;48.800;9.534;2023-04-25T10:16:00;98099.53;;;9.15;44.54
63321;BME280;49449;48.800;9.534;2023-04-25T10:18:30;98097.28;;;9.06;45.31
63321;BME280;49449;48.800;9.534;2023-04-25T10:20:59;98106.53;;;8.97;45.30
63321;BME280;49449;48.800;9.534;2023-04-25T10:23:29;98100.47;;;9.08;45.27
63321;BME280;49449;48.800;9.534;2023-04-25T10:25:58;98098.19;;;9.24;45.23
63321;BME280;49449;48.800;9.534;2023-04-25T10:28:27;98105.63;;;9.39;45.15
63321;BME280;49449;48.800;9.534;2023-04-25T10:30:59;98101.94;;;9.63;44.76
63321;BME280;49449;48.800;9.534;2023-04-25T10:33:32;98107.09;;;9.70;44.20
63321;BME280;49449;48.800;9.534;2023-04-25T10:36:09;98107.09;;;9.70;44.22
63321;BME280;49449;48.800;9.534;2023-04-25T10:38:37;98105.13;;;9.77;44.37
63321;BME280;49449;48.800;9.534;2023-04-25T10:41:06;98106.41;;;9.75;44.46
63321;BME280;49449;48.800;9.534;2023-04-25T10:43:40;98110.41;;;9.65;43.86
63321;BME280;49449;48.800;9.534;2023-04-25T10:46:18;98111.25;;;9.66;44.25
63321;BME280;49449;48.800;9.534;2023-04-25T10:48:48;98112.94;;;9.84;43.86
63321;BME280;49449;48.800;9.534;2023-04-25T10:51:18;98125.44;;;9.89;42.80
63321;BME280;49449;48.800;9.534;2023-04-25T10:53:48;98129.34;;;9.98;42.90
63321;BME280;49449;48.800;9.534;2023-04-25T10:56:27;98138.38;;;10.02;42.39
63321;BME280;49449;48.800;9.534;2023-04-25T10:59:07;98145.97;;;9.98;42.67
63321;BME280;49449;48.800;9.534;2023-04-25T11:01:38;98165.59;;;9.91;43.38
63321;BME280;49449;48.800;9.534;2023-04-25T11:04:19;98186.22;;;9.82;43.32
63321;BME280;49449;48.800;9.534;2023-04-25T11:06:58;98197.47;;;9.65;43.55
63321;BME280;49449;48.800;9.534;2023-04-25T11:09:35;98207.84;;;9.25;44.29
63321;BME280;49449;48.800;9.534;2023-04-25T11:12:04;98209.34;;;9.21;42.24
63321;BME280;49449;48.800;9.534;2023-04-25T11:14:33;98209.56;;;9.19;39.92
63321;BME280;49449;48.800;9.534;2023-04-25T11:17:01;98212.06;;;9.14;41.37
63321;BME280;49449;48.800;9.534;2023-04-25T11:19:29;98216.00;;;9.23;41.43
63321;BME280;49449;48.800;9.534;2023-04-25T11:21:58;98216.47;;;9.20;41.43
63321;BME280;49449;48.800;9.534;2023-04-25T11:24:27;98222.28;;;9.10;41.54
63321;BME280;49449;48.800;9.534;2023-04-25T11:26:56;98211.72;;;9.10;41.27
63321;BME280;49449;48.800;9.534;2023-04-25T11:29:26;98213.91;;;9.14;41.83
63321;BME280;49449;48.800;9.534;2023-04-25T11:31:55;98221.25;;;9.23;41.83
63321;BME280;49449;48.800;9.534;2023-04-25T11:34:24;98213.00;;;9.20;41.31
63321;BME280;49449;48.800;9.534;2023-04-25T11:36:52;98218.63;;;9.23;41.00
63321;BME280;49449;48.800;9.534;2023-04-25T11:39:20;98220.69;;;9.21;41.67
63321;BME280;49449;48.800;9.534;2023-04-25T11:41:48;98220.91;;;9.20;41.64
63321;BME280;49449;48.800;9.534;2023-04-25T11:44:17;98222.97;;;9.18;42.01
63321;BME280;49449;48.800;9.534;2023-04-25T11:46:45;98225.75;;;9.23;41.71
63321;BME280;49449;48.800;9.534;2023-04-25T11:49:15;98223.88;;;9.11;41.59
63321;BME280;49449;48.800;9.534;2023-04-25T11:51:45;98232.16;;;9.15;42.04
63321;BME280;49449;48.800;9.534;2023-04-25T11:54:14;98226.31;;;9.13;42.24
63321;BME280;49449;48.800;9.534;2023-04-25T11:56:42;98228.97;;;8.95;42.22
63321;BME280;49449;48.800;9.534;2023-04-25T11:59:10;98228.72;;;8.84;42.28
63321;BME280;49449;48.800;9.534;2023-04-25T12:01:40;98222.59;;;8.53;42.17
63321;BME280;49449;48.800;9.534;2023-04-25T12:04:12;98226.72;;;8.12;43.46
63321;BME280;49449;48.800;9.534;2023-04-25T12:06:43;98233.38;;;8.15;42.93
63321;BME280;49449;48.800;9.534;2023-04-25T12:09:13;98226.13;;;8.10;42.85
63321;BME280;49449;48.800;9.534;2023-04-25T12:11:42;98221.38;;;8.19;42.73
63321;BME280;49449;48.800;9.534;2023-04-25T12:14:10;98223.50;;;8.29;43.04
63321;BME280;49449;48.800;9.534;2023-04-25T12:16:42;98224.88;;;8.31;43.12
63321;BME280;49449;48.800;9.534;2023-04-25T12:19:13;98219.41;;;8.33;43.21
63321;BME280;49449;48.800;9.534;2023-04-25T12:21:42;98214.44;;;8.43;42.94
63321;BME280;49449;48.800;9.534;2023-04-25T12:24:22;98215.59;;;8.47;43.56
63321;BME280;49449;48.800;9.534;2023-04-25T12:26:53;98225.75;;;8.62;42.61
63321;BME280;49449;48.800;9.534;2023-04-25T12:29:22;98222.56;;;8.72;41.48
63321;BME280;49449;48.800;9.534;2023-04-25T12:31:53;98224.03;;;8.68;41.73
63321;BME280;49449;48.800;9.534;2023-04-25T12:34:22;98230.66;;;8.59;42.81
63321;BME280;49449;48.800;9.534;2023-04-25T12:36:52;98225.97;;;8.61;42.87
63321;BME280;49449;48.800;9.534;2023-04-25T12:39:21;98228.97;;;8.95;43.05
63321;BME280;49449;48.800;9.534;2023-04-25T12:41:49;98234.31;;;9.18;42.39
63321;BME280;49449;48.800;9.534;2023-04-25T12:44:18;98239.44;;;9.43;42.59
63321;BME280;49449;48.800;9.534;2023-04-25T12:46:46;98243.22;;;9.71;43.10
63321;BME280;49449;48.800;9.534;2023-04-25T12:49:14;98240.59;;;9.83;42.89
63321;BME280;49449;48.800;9.534;2023-04-25T12:51:44;98249.34;;;9.95;43.01
63321;BME280;49449;48.800;9.534;2023-04-25T12:54:13;98246.91;;;9.82;41.71
63321;BME280;49449;48.800;9.534;2023-04-25T12:56:41;98253.25;;;9.93;42.56
63321;BME280;49449;48.800;9.534;2023-04-25T12:59:09;98255.19;;;10.09;41.83
63321;BME280;49449;48.800;9.534;2023-04-25T13:01:37;98254.84;;;10.05;41.62
63321;BME280;49449;48.800;9.534;2023-04-25T13:04:05;98262.88;;;10.11;41.82
63321;BME280;49449;48.800;9.534;2023-04-25T13:06:33;98266.97;;;9.83;41.45
63321;BME280;49449;48.800;9.534;2023-04-25T13:09:01;98259.75;;;9.78;42.09
63321;BME280;49449;48.800;9.534;2023-04-25T13:11:31;98259.78;;;9.90;41.83
63321;BME280;49449;48.800;9.534;2023-04-25T13:13:58;98260.13;;;10.05;41.57
63321;BME280;49449;48.800;9.534;2023-04-25T13:16:26;98260.34;;;10.04;41.48